createdAt,value
2018-01-15T00:00:28.249Z,0
2018-01-15T00:01:27.887Z,0
2018-01-15T00:02:28.183Z,0
2018-01-15T00:03:28.252Z,0
2018-01-15T00:04:27.704Z,0
2018-01-15T00:05:28.024Z,0
2018-01-15T00:06:28.070Z,0
2018-01-15T00:07:28.031Z,0
2018-01-15T00:08:27.740Z,0
2018-01-15T00:09:28.304Z,0
2018-01-15T00:10:27.720Z,0
2018-01-15T00:11:28.353Z,0
2018-01-15T00:12:27.465Z,0
2018-01-15T00:13:27.505Z,0
2018-01-15T00:14:27.789Z,0
2018-01-15T00:15:28.353Z,0
2018-01-15T00:16:28.043Z,0
2018-01-15T00:17:27.837Z,0
2018-01-15T00:18:28.080Z,0
2018-01-15T00:19:27.862Z,0
2018-01-15T00:20:28.165Z,0
2018-01-15T00:21:27.858Z,0
2018-01-15T00:22:28.184Z,0
2018-01-15T00:23:28.148Z,0
2018-01-15T00:24:28.164Z,0
2018-01-15T00:25:27.603Z,0
2018-01-15T00:26:28.191Z,0
2018-01-15T00:27:28.214Z,0
2018-01-15T00:28:27.657Z,0
2018-01-15T00:29:28.221Z,0
2018-01-15T00:30:28.203Z,0
2018-01-15T00:31:27.999Z,0
2018-01-15T00:32:27.676Z,0
2018-01-15T00:33:27.946Z,0
2018-01-15T00:34:28.005Z,0
2018-01-15T00:35:28.011Z,0
2018-01-15T00:36:28.000Z,0
2018-01-15T00:37:28.044Z,0
2018-01-15T00:38:28.064Z,0
2018-01-15T00:39:28.274Z,0
2018-01-15T00:40:27.749Z,0
2018-01-15T00:41:28.095Z,0
2018-01-15T00:42:27.792Z,0
2018-01-15T00:43:28.053Z,0
2018-01-15T00:44:28.105Z,0
2018-01-15T00:45:28.665Z,0
2018-01-15T00:46:27.830Z,0
2018-01-15T00:47:28.346Z,0
2018-01-15T00:48:28.453Z,0
2018-01-15T00:49:28.146Z,0
2018-01-15T00:50:28.441Z,0
2018-01-15T00:51:28.144Z,0
2018-01-15T00:52:27.894Z,0
2018-01-15T00:53:28.467Z,0
2018-01-15T00:54:28.197Z,0
2018-01-15T00:55:28.524Z,0
2018-01-15T00:56:28.796Z,0
2018-01-15T00:57:28.764Z,0
2018-01-15T00:58:28.272Z,0
2018-01-15T00:59:28.215Z,0
2018-01-15T01:00:28.237Z,0
2018-01-15T01:01:28.308Z,0
2018-01-15T01:02:27.962Z,0
2018-01-15T01:03:27.987Z,0
2018-01-15T01:04:28.836Z,0
2018-01-15T01:05:28.016Z,0
2018-01-15T01:06:28.295Z,0
2018-01-15T01:07:28.557Z,0
2018-01-15T01:08:28.331Z,0
2018-01-15T01:09:28.361Z,0
2018-01-15T01:10:28.637Z,0
2018-01-15T01:11:28.352Z,0
2018-01-15T01:12:28.646Z,0
2018-01-15T01:13:28.384Z,0
2018-01-15T01:14:28.074Z,0
2018-01-15T01:15:28.405Z,0
2018-01-15T01:16:28.413Z,0
2018-01-15T01:17:28.160Z,0
2018-01-15T01:18:28.119Z,0
2018-01-15T01:19:28.727Z,0
2018-01-15T01:20:28.447Z,0
2018-01-15T01:21:29.025Z,0
2018-01-15T01:22:28.737Z,0
2018-01-15T01:23:28.529Z,0
2018-01-15T01:24:28.790Z,0
2018-01-15T01:25:29.069Z,0
2018-01-15T01:26:28.816Z,0
2018-01-15T01:27:28.542Z,0
2018-01-15T01:28:28.829Z,0
2018-01-15T01:29:28.580Z,0
2018-01-15T01:30:29.112Z,0
2018-01-15T01:31:28.867Z,0
2018-01-15T01:32:28.283Z,0
2018-01-15T01:33:28.886Z,0
2018-01-15T01:34:28.859Z,0
2018-01-15T01:35:28.633Z,0
2018-01-15T01:36:28.365Z,0
2018-01-15T01:37:28.669Z,0
2018-01-15T01:38:28.655Z,0
2018-01-15T01:39:28.343Z,0
2018-01-15T01:40:28.930Z,0
2018-01-15T01:41:28.984Z,0
2018-01-15T01:42:28.661Z,0
2018-01-15T01:43:28.679Z,0
2018-01-15T01:44:29.007Z,0
2018-01-15T01:45:29.004Z,0
2018-01-15T01:46:28.711Z,0
2018-01-15T01:47:28.746Z,0
2018-01-15T01:48:29.013Z,0
2018-01-15T01:49:28.999Z,0
2018-01-15T01:50:29.153Z,0
2018-01-15T01:51:29.058Z,0
2018-01-15T01:52:29.030Z,0
2018-01-15T01:53:28.808Z,0
2018-01-15T01:54:28.768Z,0
2018-01-15T01:55:28.852Z,0
2018-01-15T01:56:29.156Z,0
2018-01-15T01:57:28.985Z,0
2018-01-15T01:58:29.155Z,0
2018-01-15T01:59:29.163Z,0
2018-01-15T02:00:28.877Z,0
2018-01-15T02:01:28.582Z,0
2018-01-15T02:02:28.868Z,0
2018-01-15T02:03:29.185Z,0
2018-01-15T02:04:28.886Z,0
2018-01-15T02:05:29.706Z,0
2018-01-15T02:06:28.928Z,0
2018-01-15T02:07:29.212Z,0
2018-01-15T02:08:28.950Z,0
2018-01-15T02:09:29.256Z,0
2018-01-15T02:10:28.970Z,0
2018-01-15T02:11:29.246Z,0
2018-01-15T02:12:28.972Z,0
2018-01-15T02:13:29.588Z,0
2018-01-15T02:14:28.992Z,0
2018-01-15T02:15:29.288Z,0
2018-01-15T02:16:29.266Z,0
2018-01-15T02:17:30.168Z,0
2018-01-15T02:18:29.057Z,0
2018-01-15T02:19:29.044Z,0
2018-01-15T02:20:29.320Z,0
2018-01-15T02:21:29.063Z,0
2018-01-15T02:22:29.674Z,0
2018-01-15T02:23:29.419Z,0
2018-01-15T02:24:29.123Z,0
2018-01-15T02:25:29.410Z,0
2018-01-15T02:26:29.139Z,0
2018-01-15T02:27:29.156Z,0
2018-01-15T02:28:29.464Z,0
2018-01-15T02:29:29.180Z,0
2018-01-15T02:30:29.442Z,0
2018-01-15T02:31:29.742Z,0
2018-01-15T02:32:29.454Z,0
2018-01-15T02:33:29.199Z,0
2018-01-15T02:34:29.488Z,0
2018-01-15T02:35:29.533Z,0
2018-01-15T02:36:29.564Z,0
2018-01-15T02:37:29.258Z,0
2018-01-15T02:38:29.326Z,0
2018-01-15T02:39:29.925Z,0
2018-01-15T02:40:29.523Z,0
2018-01-15T02:41:29.627Z,0
2018-01-15T02:42:29.896Z,0
2018-01-15T02:43:29.559Z,0
2018-01-15T02:44:29.654Z,0
2018-01-15T02:45:29.631Z,0
2018-01-15T02:46:29.650Z,0
2018-01-15T02:47:29.371Z,0
2018-01-15T02:48:29.384Z,0
2018-01-15T02:49:29.357Z,0
2018-01-15T02:50:29.658Z,0
2018-01-15T02:51:29.428Z,0
2018-01-15T02:52:29.951Z,0
2018-01-15T02:53:29.436Z,0
2018-01-15T02:54:29.175Z,0
2018-01-15T02:55:29.484Z,0
2018-01-15T02:56:29.709Z,0
2018-01-15T02:57:29.749Z,0
2018-01-15T02:58:29.478Z,0
2018-01-15T02:59:29.737Z,0
2018-01-15T03:00:29.722Z,0
2018-01-15T03:01:29.773Z,0
2018-01-15T03:02:29.230Z,0
2018-01-15T03:03:29.515Z,0
2018-01-15T03:04:29.521Z,0
2018-01-15T03:05:29.774Z,0
2018-01-15T03:06:29.560Z,0
2018-01-15T03:07:29.871Z,0
2018-01-15T03:08:29.855Z,0
2018-01-15T03:09:29.578Z,0
2018-01-15T03:10:29.873Z,0
2018-01-15T03:11:29.607Z,0
2018-01-15T03:12:30.148Z,0
2018-01-15T03:13:30.221Z,0
2018-01-15T03:14:29.353Z,0
2018-01-15T03:15:29.896Z,0
2018-01-15T03:16:29.906Z,0
2018-01-15T03:17:29.978Z,0
2018-01-15T03:18:30.324Z,0
2018-01-15T03:19:29.394Z,0
2018-01-15T03:20:29.708Z,0
2018-01-15T03:21:30.218Z,0
2018-01-15T03:22:30.262Z,0
2018-01-15T03:23:30.302Z,0
2018-01-15T03:24:30.034Z,0
2018-01-15T03:25:29.770Z,0
2018-01-15T03:26:29.486Z,0
2018-01-15T03:27:29.478Z,0
2018-01-15T03:28:29.756Z,0
2018-01-15T03:29:29.772Z,0
2018-01-15T03:30:30.309Z,0
2018-01-15T03:31:30.348Z,0
2018-01-15T03:32:30.134Z,0
2018-01-15T03:33:30.371Z,0
2018-01-15T03:34:30.258Z,0
2018-01-15T03:35:29.577Z,0
2018-01-15T03:36:29.865Z,0
2018-01-15T03:37:30.191Z,0
2018-01-15T03:38:30.065Z,0
2018-01-15T03:39:30.152Z,0
2018-01-15T03:40:29.588Z,0
2018-01-15T03:41:30.160Z,0
2018-01-15T03:42:29.881Z,0
2018-01-15T03:43:29.722Z,0
2018-01-15T03:44:29.957Z,0
2018-01-15T03:45:29.953Z,0
2018-01-15T03:46:30.239Z,0
2018-01-15T03:47:29.670Z,0
2018-01-15T03:48:30.211Z,0
2018-01-15T03:49:29.697Z,0
2018-01-15T03:50:30.282Z,0
2018-01-15T03:51:30.027Z,0
2018-01-15T03:52:29.754Z,0
2018-01-15T03:53:29.773Z,0
2018-01-15T03:54:30.743Z,0
2018-01-15T03:55:30.653Z,0
2018-01-15T03:56:30.064Z,0
2018-01-15T03:57:30.056Z,0
2018-01-15T03:58:30.623Z,0
2018-01-15T03:59:30.358Z,0
2018-01-15T04:00:30.115Z,0
2018-01-15T04:01:30.685Z,0
2018-01-15T04:02:30.432Z,0
2018-01-15T04:03:30.510Z,0
2018-01-15T04:04:30.160Z,0
2018-01-15T04:05:30.146Z,0
2018-01-15T04:06:30.667Z,0
2018-01-15T04:07:30.137Z,0
2018-01-15T04:08:29.931Z,0
2018-01-15T04:09:30.180Z,0
2018-01-15T04:10:29.932Z,0
2018-01-15T04:11:30.249Z,0
2018-01-15T04:12:30.470Z,0
2018-01-15T04:13:30.264Z,0
2018-01-15T04:14:30.480Z,0
2018-01-15T04:15:30.559Z,0
2018-01-15T04:16:30.224Z,0
2018-01-15T04:17:30.555Z,0
2018-01-15T04:18:30.939Z,0
2018-01-15T04:19:30.295Z,0
2018-01-15T04:20:30.308Z,0
2018-01-15T04:21:30.339Z,0
2018-01-15T04:22:30.602Z,0
2018-01-15T04:23:30.199Z,0
2018-01-15T04:24:30.634Z,0
2018-01-15T04:25:30.315Z,0
2018-01-15T04:26:30.640Z,0
2018-01-15T04:27:30.646Z,0
2018-01-15T04:28:30.621Z,0
2018-01-15T04:29:30.396Z,0
2018-01-15T04:30:30.405Z,0
2018-01-15T04:31:30.964Z,0
2018-01-15T04:32:30.130Z,0
2018-01-15T04:33:30.980Z,0
2018-01-15T04:34:30.467Z,0
2018-01-15T04:35:31.018Z,0
2018-01-15T04:36:30.742Z,0
2018-01-15T04:37:30.484Z,0
2018-01-15T04:38:30.996Z,0
2018-01-15T04:39:30.456Z,0
2018-01-15T04:40:30.792Z,0
2018-01-15T04:41:31.073Z,0
2018-01-15T04:42:30.814Z,0
2018-01-15T04:43:30.251Z,0
2018-01-15T04:44:30.525Z,0
2018-01-15T04:45:30.548Z,0
2018-01-15T04:46:30.847Z,0
2018-01-15T04:47:30.832Z,0
2018-01-15T04:48:30.550Z,0
2018-01-15T04:49:30.593Z,0
2018-01-15T04:50:30.319Z,0
2018-01-15T04:51:30.638Z,0
2018-01-15T04:52:30.636Z,0
2018-01-15T04:53:30.941Z,0
2018-01-15T04:54:30.965Z,0
2018-01-15T04:55:30.669Z,0
2018-01-15T04:56:30.679Z,0
2018-01-15T04:57:30.444Z,0
2018-01-15T04:58:30.696Z,0
2018-01-15T04:59:30.722Z,0
2018-01-15T05:00:30.992Z,0
2018-01-15T05:01:31.009Z,0
2018-01-15T05:02:30.962Z,0
2018-01-15T05:03:30.746Z,0
2018-01-15T05:04:30.723Z,0
2018-01-15T05:05:30.478Z,0
2018-01-15T05:06:30.731Z,0
2018-01-15T05:07:31.311Z,0
2018-01-15T05:08:30.753Z,0
2018-01-15T05:09:31.034Z,0
2018-01-15T05:10:31.066Z,0
2018-01-15T05:11:30.765Z,0
2018-01-15T05:12:30.833Z,0
2018-01-15T05:13:31.056Z,0
2018-01-15T05:14:31.373Z,0
2018-01-15T05:15:30.852Z,0
2018-01-15T05:16:31.127Z,0
2018-01-15T05:17:30.848Z,0
2018-01-15T05:18:30.852Z,0
2018-01-15T05:19:31.146Z,0
2018-01-15T05:20:30.912Z,0
2018-01-15T05:21:31.186Z,0
2018-01-15T05:22:30.903Z,0
2018-01-15T05:23:31.230Z,0
2018-01-15T05:24:30.643Z,0
2018-01-15T05:25:30.929Z,0
2018-01-15T05:26:31.490Z,0
2018-01-15T05:27:31.570Z,0
2018-01-15T05:28:31.294Z,0
2018-01-15T05:29:30.962Z,0
2018-01-15T05:30:30.704Z,0
2018-01-15T05:31:31.295Z,0
2018-01-15T05:32:31.009Z,0
2018-01-15T05:33:31.019Z,0
2018-01-15T05:34:31.030Z,0
2018-01-15T05:35:31.014Z,0
2018-01-15T05:36:31.365Z,0
2018-01-15T05:37:31.351Z,0
2018-01-15T05:38:31.082Z,0
2018-01-15T05:39:31.035Z,0
2018-01-15T05:40:31.400Z,0
2018-01-15T05:41:31.346Z,0
2018-01-15T05:42:31.407Z,0
2018-01-15T05:43:31.107Z,0
2018-01-15T05:44:31.398Z,0
2018-01-15T05:45:32.049Z,0
2018-01-15T05:46:31.665Z,0
2018-01-15T05:47:31.116Z,0
2018-01-15T05:48:31.168Z,0
2018-01-15T05:49:31.478Z,0
2018-01-15T05:50:31.169Z,0
2018-01-15T05:51:31.510Z,0
2018-01-15T05:52:31.821Z,0
2018-01-15T05:53:30.975Z,0
2018-01-15T05:54:31.242Z,0
2018-01-15T05:55:31.843Z,0
2018-01-15T05:56:31.267Z,0
2018-01-15T05:57:31.254Z,0
2018-01-15T05:58:31.296Z,0
2018-01-15T05:59:31.333Z,0
2018-01-15T06:00:31.005Z,0
2018-01-15T06:01:31.284Z,0
2018-01-15T06:02:31.286Z,0
2018-01-15T06:03:31.321Z,0
2018-01-15T06:04:31.341Z,0
2018-01-15T06:05:31.629Z,0
2018-01-15T06:06:31.890Z,0
2018-01-15T06:07:31.651Z,0
2018-01-15T06:08:31.372Z,0
2018-01-15T06:09:31.362Z,0
2018-01-15T06:10:31.532Z,0
2018-01-15T06:11:31.111Z,0
2018-01-15T06:12:31.337Z,0
2018-01-15T06:13:31.701Z,0
2018-01-15T06:14:31.430Z,0
2018-01-15T06:15:31.150Z,0
2018-01-15T06:16:32.014Z,0
2018-01-15T06:17:31.427Z,0
2018-01-15T06:18:32.138Z,0
2018-01-15T06:19:31.207Z,0
2018-01-15T06:20:31.521Z,0
2018-01-15T06:21:32.003Z,0
2018-01-15T06:22:31.501Z,0
2018-01-15T06:23:31.509Z,0
2018-01-15T06:24:31.612Z,0
2018-01-15T06:25:31.807Z,0
2018-01-15T06:26:31.854Z,0
2018-01-15T06:27:32.096Z,0
2018-01-15T06:28:31.558Z,0
2018-01-15T06:29:31.903Z,0
2018-01-15T06:30:31.620Z,0
2018-01-15T06:31:31.622Z,0
2018-01-15T06:32:31.310Z,0
2018-01-15T06:33:32.177Z,0
2018-01-15T06:34:31.929Z,0
2018-01-15T06:35:31.913Z,0
2018-01-15T06:36:31.992Z,0
2018-01-15T06:37:31.637Z,0
2018-01-15T06:38:31.993Z,0
2018-01-15T06:39:31.509Z,0
2018-01-15T06:40:32.159Z,0
2018-01-15T06:41:32.037Z,0
2018-01-15T06:42:31.981Z,0
2018-01-15T06:43:31.961Z,0
2018-01-15T06:44:31.725Z,0
2018-01-15T06:45:31.880Z,0
2018-01-15T06:46:31.718Z,0
2018-01-15T06:47:32.094Z,4
2018-01-15T06:48:31.788Z,4
2018-01-15T06:49:32.027Z,4
2018-01-15T06:50:31.458Z,0
2018-01-15T06:51:31.508Z,0
2018-01-15T06:52:32.391Z,4
2018-01-15T06:53:32.354Z,4
2018-01-15T06:54:32.044Z,8
2018-01-15T06:55:32.413Z,4
2018-01-15T06:56:31.833Z,4
2018-01-15T06:57:32.148Z,8
2018-01-15T06:58:32.315Z,8
2018-01-15T06:59:31.586Z,8
2018-01-15T07:00:32.440Z,8
2018-01-15T07:01:31.584Z,8
2018-01-15T07:02:32.445Z,12
2018-01-15T07:03:31.604Z,12
2018-01-15T07:04:32.454Z,16
2018-01-15T07:05:32.541Z,16
2018-01-15T07:06:32.468Z,20
2018-01-15T07:07:31.972Z,20
2018-01-15T07:08:31.936Z,16
2018-01-15T07:09:31.915Z,24
2018-01-15T07:10:32.654Z,24
2018-01-15T07:11:31.954Z,28
2018-01-15T07:12:31.950Z,28
2018-01-15T07:13:31.731Z,28
2018-01-15T07:14:31.732Z,28
2018-01-15T07:15:32.460Z,32
2018-01-15T07:16:32.258Z,36
2018-01-15T07:17:32.327Z,40
2018-01-15T07:18:32.025Z,40
2018-01-15T07:19:32.024Z,40
2018-01-15T07:20:32.043Z,44
2018-01-15T07:21:32.336Z,44
2018-01-15T07:22:32.833Z,52
2018-01-15T07:23:32.122Z,56
2018-01-15T07:24:32.125Z,56
2018-01-15T07:25:32.014Z,60
2018-01-15T07:26:32.400Z,64
2018-01-15T07:27:31.856Z,64
2018-01-15T07:28:32.591Z,68
2018-01-15T07:29:32.730Z,72
2018-01-15T07:30:32.149Z,72
2018-01-15T07:31:32.741Z,76
2018-01-15T07:32:31.893Z,80
2018-01-15T07:33:32.478Z,84
2018-01-15T07:34:32.477Z,84
2018-01-15T07:35:32.497Z,88
2018-01-15T07:36:32.701Z,92
2018-01-15T07:37:32.806Z,96
2018-01-15T07:38:32.227Z,100
2018-01-15T07:39:32.831Z,100
2018-01-15T07:40:32.558Z,104
2018-01-15T07:41:32.282Z,108
2018-01-15T07:42:31.975Z,112
2018-01-15T07:43:32.529Z,112
2018-01-15T07:44:32.571Z,116
2018-01-15T07:45:32.345Z,120
2018-01-15T07:46:32.570Z,124
2018-01-15T07:47:32.619Z,124
2018-01-15T07:48:32.352Z,128
2018-01-15T07:49:32.614Z,128
2018-01-15T07:50:32.832Z,132
2018-01-15T07:51:32.599Z,136
2018-01-15T07:52:32.638Z,140
2018-01-15T07:53:32.679Z,140
2018-01-15T07:54:32.668Z,144
2018-01-15T07:55:32.780Z,148
2018-01-15T07:56:32.704Z,148
2018-01-15T07:57:32.722Z,152
2018-01-15T07:58:32.683Z,156
2018-01-15T07:59:32.729Z,156
2018-01-15T08:00:32.743Z,160
2018-01-15T08:01:32.182Z,160
2018-01-15T08:02:33.042Z,164
2018-01-15T08:03:32.807Z,168
2018-01-15T08:04:32.732Z,168
2018-01-15T08:05:32.775Z,172
2018-01-15T08:06:32.498Z,172
2018-01-15T08:07:32.783Z,172
2018-01-15T08:08:32.818Z,180
2018-01-15T08:09:32.972Z,180
2018-01-15T08:10:32.552Z,180
2018-01-15T08:11:32.598Z,184
2018-01-15T08:12:32.895Z,188
2018-01-15T08:13:32.589Z,188
2018-01-15T08:14:33.183Z,188
2018-01-15T08:15:32.862Z,192
2018-01-15T08:16:33.181Z,192
2018-01-15T08:17:32.369Z,196
2018-01-15T08:18:32.641Z,196
2018-01-15T08:19:33.231Z,200
2018-01-15T08:20:32.938Z,200
2018-01-15T08:21:32.690Z,204
2018-01-15T08:22:32.688Z,204
2018-01-15T08:23:32.985Z,208
2018-01-15T08:24:32.733Z,208
2018-01-15T08:25:32.975Z,208
2018-01-15T08:26:32.976Z,212
2018-01-15T08:27:33.275Z,212
2018-01-15T08:28:33.021Z,216
2018-01-15T08:29:32.734Z,216
2018-01-15T08:30:32.968Z,220
2018-01-15T08:31:32.777Z,224
2018-01-15T08:32:33.021Z,224
2018-01-15T08:33:32.754Z,224
2018-01-15T08:34:33.080Z,228
2018-01-15T08:35:32.509Z,228
2018-01-15T08:36:34.296Z,228
2018-01-15T08:37:33.106Z,228
2018-01-15T08:38:32.544Z,236
2018-01-15T08:39:33.144Z,236
2018-01-15T08:40:32.830Z,236
2018-01-15T08:41:32.820Z,240
2018-01-15T08:42:32.857Z,240
2018-01-15T08:43:33.188Z,240
2018-01-15T08:44:32.828Z,244
2018-01-15T08:45:33.482Z,244
2018-01-15T08:46:32.901Z,248
2018-01-15T08:47:33.163Z,248
2018-01-15T08:48:32.897Z,252
2018-01-15T08:49:32.929Z,256
2018-01-15T08:50:32.925Z,256
2018-01-15T08:51:32.833Z,256
2018-01-15T08:52:33.218Z,260
2018-01-15T08:53:32.966Z,256
2018-01-15T08:54:32.960Z,252
2018-01-15T08:55:33.065Z,240
2018-01-15T08:56:33.250Z,240
2018-01-15T08:57:33.290Z,232
2018-01-15T08:58:32.983Z,236
2018-01-15T08:59:33.291Z,248
2018-01-15T09:00:33.049Z,256
2018-01-15T09:01:33.363Z,260
2018-01-15T09:02:33.370Z,264
2018-01-15T09:03:33.081Z,264
2018-01-15T09:04:33.305Z,272
2018-01-15T09:05:33.057Z,272
2018-01-15T09:06:33.512Z,276
2018-01-15T09:07:33.099Z,276
2018-01-15T09:08:32.840Z,276
2018-01-15T09:09:33.363Z,276
2018-01-15T09:10:33.078Z,280
2018-01-15T09:11:33.139Z,280
2018-01-15T09:12:33.129Z,276
2018-01-15T09:13:33.770Z,280
2018-01-15T09:14:33.137Z,284
2018-01-15T09:15:33.443Z,284
2018-01-15T09:16:33.499Z,284
2018-01-15T09:17:33.463Z,284
2018-01-15T09:18:32.911Z,288
2018-01-15T09:19:33.470Z,292
2018-01-15T09:20:33.222Z,292
2018-01-15T09:21:33.799Z,288
2018-01-15T09:22:32.952Z,292
2018-01-15T09:23:32.951Z,292
2018-01-15T09:24:33.257Z,296
2018-01-15T09:25:33.306Z,296
2018-01-15T09:26:33.283Z,300
2018-01-15T09:27:33.560Z,300
2018-01-15T09:28:33.363Z,300
2018-01-15T09:29:33.600Z,300
2018-01-15T09:30:33.863Z,300
2018-01-15T09:31:33.323Z,300
2018-01-15T09:32:33.876Z,300
2018-01-15T09:33:33.929Z,304
2018-01-15T09:34:33.954Z,300
2018-01-15T09:35:33.375Z,304
2018-01-15T09:36:33.706Z,304
2018-01-15T09:37:33.102Z,304
2018-01-15T09:38:33.667Z,308
2018-01-15T09:39:33.390Z,308
2018-01-15T09:40:33.432Z,308
2018-01-15T09:41:33.103Z,308
2018-01-15T09:42:33.969Z,312
2018-01-15T09:43:33.724Z,308
2018-01-15T09:44:34.029Z,312
2018-01-15T09:45:34.041Z,312
2018-01-15T09:46:33.899Z,316
2018-01-15T09:47:33.497Z,312
2018-01-15T09:48:34.006Z,316
2018-01-15T09:49:33.820Z,312
2018-01-15T09:50:33.224Z,312
2018-01-15T09:51:33.991Z,316
2018-01-15T09:52:33.823Z,316
2018-01-15T09:53:33.813Z,316
2018-01-15T09:54:33.850Z,316
2018-01-15T09:55:33.866Z,316
2018-01-15T09:56:33.915Z,320
2018-01-15T09:57:34.157Z,324
2018-01-15T09:58:33.598Z,324
2018-01-15T09:59:33.914Z,320
2018-01-15T10:00:33.894Z,320
2018-01-15T10:01:33.957Z,324
2018-01-15T10:02:33.891Z,316
2018-01-15T10:03:33.616Z,324
2018-01-15T10:04:33.627Z,324
2018-01-15T10:05:33.909Z,324
2018-01-15T10:06:34.298Z,328
2018-01-15T10:07:33.690Z,328
2018-01-15T10:08:33.958Z,332
2018-01-15T10:09:33.681Z,332
2018-01-15T10:10:34.268Z,332
2018-01-15T10:11:33.704Z,332
2018-01-15T10:12:34.297Z,336
2018-01-15T10:13:33.736Z,332
2018-01-15T10:14:33.483Z,336
2018-01-15T10:15:33.740Z,336
2018-01-15T10:16:34.006Z,344
2018-01-15T10:17:33.825Z,344
2018-01-15T10:18:34.054Z,352
2018-01-15T10:19:34.423Z,368
2018-01-15T10:20:33.522Z,396
2018-01-15T10:21:33.829Z,400
2018-01-15T10:22:33.809Z,380
2018-01-15T10:23:34.103Z,400
2018-01-15T10:24:33.874Z,428
2018-01-15T10:25:33.866Z,476
2018-01-15T10:26:33.880Z,540
2018-01-15T10:27:33.845Z,600
2018-01-15T10:28:34.162Z,760
2018-01-15T10:29:33.899Z,836
2018-01-15T10:30:33.919Z,888
2018-01-15T10:31:34.243Z,956
2018-01-15T10:32:34.221Z,1028
2018-01-15T10:33:34.509Z,1060
2018-01-15T10:34:34.533Z,1048
2018-01-15T10:35:33.657Z,1004
2018-01-15T10:36:34.409Z,956
2018-01-15T10:37:34.024Z,800
2018-01-15T10:38:34.284Z,700
2018-01-15T10:39:34.298Z,704
2018-01-15T10:40:34.005Z,580
2018-01-15T10:41:33.756Z,496
2018-01-15T10:42:34.539Z,420
2018-01-15T10:43:34.035Z,412
2018-01-15T10:44:34.029Z,404
2018-01-15T10:45:34.054Z,416
2018-01-15T10:46:34.029Z,452
2018-01-15T10:47:34.679Z,508
2018-01-15T10:48:34.613Z,548
2018-01-15T10:49:34.336Z,536
2018-01-15T10:50:34.443Z,524
2018-01-15T10:51:34.107Z,528
2018-01-15T10:52:33.903Z,440
2018-01-15T10:53:33.861Z,448
2018-01-15T10:54:34.398Z,416
2018-01-15T10:55:34.768Z,408
2018-01-15T10:56:34.477Z,492
2018-01-15T10:57:34.495Z,536
2018-01-15T10:58:34.200Z,536
2018-01-15T10:59:34.513Z,684
2018-01-15T11:00:33.922Z,808
2018-01-15T11:01:34.529Z,760
2018-01-15T11:02:34.586Z,756
2018-01-15T11:03:34.244Z,828
2018-01-15T11:04:34.576Z,900
2018-01-15T11:05:34.823Z,852
2018-01-15T11:06:34.272Z,900
2018-01-15T11:07:34.298Z,988
2018-01-15T11:08:34.910Z,1004
2018-01-15T11:09:34.028Z,952
2018-01-15T11:10:34.611Z,916
2018-01-15T11:11:34.316Z,804
2018-01-15T11:12:35.121Z,848
2018-01-15T11:13:34.116Z,912
2018-01-15T11:14:34.402Z,840
2018-01-15T11:15:34.343Z,828
2018-01-15T11:16:34.126Z,844
2018-01-15T11:17:34.410Z,776
2018-01-15T11:18:34.706Z,764
2018-01-15T11:19:34.432Z,652
2018-01-15T11:20:34.113Z,604
2018-01-15T11:21:34.766Z,512
2018-01-15T11:22:34.757Z,420
2018-01-15T11:23:34.790Z,372
2018-01-15T11:24:34.451Z,372
2018-01-15T11:25:34.886Z,436
2018-01-15T11:26:34.798Z,472
2018-01-15T11:27:34.546Z,472
2018-01-15T11:28:34.634Z,480
2018-01-15T11:29:34.489Z,500
2018-01-15T11:30:34.539Z,512
2018-01-15T11:31:35.096Z,536
2018-01-15T11:32:35.020Z,736
2018-01-15T11:33:34.909Z,792
2018-01-15T11:34:34.854Z,940
2018-01-15T11:35:34.883Z,864
2018-01-15T11:36:35.202Z,956
2018-01-15T11:37:34.789Z,976
2018-01-15T11:38:34.866Z,936
2018-01-15T11:39:35.219Z,736
2018-01-15T11:40:34.941Z,696
2018-01-15T11:41:34.676Z,672
2018-01-15T11:42:34.932Z,764
2018-01-15T11:43:34.660Z,1032
2018-01-15T11:44:34.682Z,1056
2018-01-15T11:45:35.020Z,1020
2018-01-15T11:46:35.028Z,944
2018-01-15T11:47:34.889Z,1032
2018-01-15T11:48:34.461Z,968
2018-01-15T11:49:34.794Z,868
2018-01-15T11:50:34.747Z,860
2018-01-15T11:51:34.761Z,1044
2018-01-15T11:52:35.101Z,924
2018-01-15T11:53:35.023Z,840
2018-01-15T11:54:34.804Z,556
2018-01-15T11:55:35.088Z,544
2018-01-15T11:56:34.832Z,640
2018-01-15T11:57:34.814Z,640
2018-01-15T11:58:35.082Z,688
2018-01-15T11:59:34.863Z,680
2018-01-15T12:00:35.121Z,592
2018-01-15T12:01:35.174Z,756
2018-01-15T12:02:35.526Z,844
2018-01-15T12:03:34.942Z,800
2018-01-15T12:04:35.149Z,904
2018-01-15T12:05:35.189Z,1028
2018-01-15T12:06:34.914Z,1080
2018-01-15T12:07:35.548Z,1072
2018-01-15T12:08:35.477Z,976
2018-01-15T12:09:35.233Z,1016
2018-01-15T12:10:35.311Z,976
2018-01-15T12:11:35.260Z,852
2018-01-15T12:12:35.310Z,832
2018-01-15T12:13:35.028Z,768
2018-01-15T12:14:35.017Z,748
2018-01-15T12:15:35.031Z,764
2018-01-15T12:16:35.400Z,824
2018-01-15T12:17:35.085Z,816
2018-01-15T12:18:35.520Z,732
2018-01-15T12:19:35.481Z,760
2018-01-15T12:20:35.328Z,800
2018-01-15T12:21:35.211Z,880
2018-01-15T12:22:35.181Z,884
2018-01-15T12:23:35.169Z,888
2018-01-15T12:24:35.128Z,836
2018-01-15T12:25:35.706Z,772
2018-01-15T12:26:35.681Z,840
2018-01-15T12:27:35.210Z,812
2018-01-15T12:28:35.813Z,760
2018-01-15T12:29:35.486Z,772
2018-01-15T12:30:35.232Z,744
2018-01-15T12:31:34.981Z,780
2018-01-15T12:32:35.753Z,896
2018-01-15T12:33:35.476Z,920
2018-01-15T12:34:35.559Z,1076
2018-01-15T12:35:35.534Z,1052
2018-01-15T12:36:35.533Z,1152
2018-01-15T12:37:35.483Z,1084
2018-01-15T12:38:35.632Z,916
2018-01-15T12:39:35.313Z,876
2018-01-15T12:40:35.626Z,692
2018-01-15T12:41:35.302Z,456
2018-01-15T12:42:35.625Z,288
2018-01-15T12:43:35.654Z,204
2018-01-15T12:44:35.428Z,212
2018-01-15T12:45:35.964Z,240
2018-01-15T12:46:35.934Z,280
2018-01-15T12:47:35.733Z,272
2018-01-15T12:48:35.441Z,368
2018-01-15T12:49:35.417Z,444
2018-01-15T12:50:35.435Z,476
2018-01-15T12:51:35.754Z,464
2018-01-15T12:52:35.795Z,436
2018-01-15T12:53:35.760Z,392
2018-01-15T12:54:36.044Z,412
2018-01-15T12:55:35.225Z,452
2018-01-15T12:56:35.500Z,448
2018-01-15T12:57:35.535Z,480
2018-01-15T12:58:35.560Z,524
2018-01-15T12:59:35.857Z,548
2018-01-15T13:00:35.585Z,608
2018-01-15T13:01:35.553Z,732
2018-01-15T13:02:36.190Z,660
2018-01-15T13:03:35.627Z,472
2018-01-15T13:04:35.330Z,444
2018-01-15T13:05:35.374Z,364
2018-01-15T13:06:35.865Z,356
2018-01-15T13:07:35.661Z,400
2018-01-15T13:08:35.943Z,416
2018-01-15T13:09:35.949Z,408
2018-01-15T13:10:35.938Z,420
2018-01-15T13:11:35.749Z,476
2018-01-15T13:12:35.940Z,412
2018-01-15T13:13:35.719Z,388
2018-01-15T13:14:35.720Z,364
2018-01-15T13:15:36.029Z,320
2018-01-15T13:16:35.976Z,232
2018-01-15T13:17:35.739Z,232
2018-01-15T13:18:36.319Z,276
2018-01-15T13:19:35.854Z,320
2018-01-15T13:20:36.110Z,400
2018-01-15T13:21:36.079Z,484
2018-01-15T13:22:35.522Z,468
2018-01-15T13:23:36.159Z,432
2018-01-15T13:24:36.394Z,384
2018-01-15T13:25:35.851Z,384
2018-01-15T13:26:35.873Z,448
2018-01-15T13:27:36.140Z,540
2018-01-15T13:28:36.490Z,568
2018-01-15T13:29:36.205Z,600
2018-01-15T13:30:36.178Z,644
2018-01-15T13:31:36.173Z,672
2018-01-15T13:32:36.008Z,760
2018-01-15T13:33:36.522Z,872
2018-01-15T13:34:36.290Z,700
2018-01-15T13:35:35.697Z,636
2018-01-15T13:36:35.960Z,584
2018-01-15T13:37:36.280Z,636
2018-01-15T13:38:36.302Z,796
2018-01-15T13:39:36.303Z,716
2018-01-15T13:40:36.020Z,480
2018-01-15T13:41:36.549Z,532
2018-01-15T13:42:36.400Z,584
2018-01-15T13:43:36.360Z,624
2018-01-15T13:44:36.346Z,744
2018-01-15T13:45:36.359Z,764
2018-01-15T13:46:35.862Z,556
2018-01-15T13:47:36.125Z,564
2018-01-15T13:48:36.113Z,508
2018-01-15T13:49:36.382Z,504
2018-01-15T13:50:36.412Z,364
2018-01-15T13:51:35.852Z,292
2018-01-15T13:52:36.194Z,284
2018-01-15T13:53:36.208Z,300
2018-01-15T13:54:36.471Z,332
2018-01-15T13:55:36.220Z,324
2018-01-15T13:56:36.525Z,308
2018-01-15T13:57:35.937Z,344
2018-01-15T13:58:36.284Z,368
2018-01-15T13:59:36.577Z,416
2018-01-15T14:00:36.784Z,408
2018-01-15T14:01:36.552Z,344
2018-01-15T14:02:36.865Z,344
2018-01-15T14:03:36.285Z,328
2018-01-15T14:04:36.639Z,368
2018-01-15T14:05:36.325Z,440
2018-01-15T14:06:36.919Z,472
2018-01-15T14:07:36.032Z,428
2018-01-15T14:08:36.953Z,396
2018-01-15T14:09:36.662Z,428
2018-01-15T14:10:36.379Z,568
2018-01-15T14:11:36.725Z,504
2018-01-15T14:12:36.728Z,464
2018-01-15T14:13:36.970Z,496
2018-01-15T14:14:36.192Z,520
2018-01-15T14:15:36.479Z,392